sensor_id;sensor_type;location;lat;lon;timestamp;pressure;altitude;pressure_sealevel;temperature;humidity
10881;BME280;5493;48.884;8.338;2022-09-27T00:00:15;98514.50;;;12.20;100.00
10881;BME280;5493;48.884;8.338;2022-09-27T00:02:42;98505.34;;;11.76;100.00
10881;BME280;5493;48.884;8.338;2022-09-27T00:05:09;98510.75;;;11.96;100.00
10881;BME280;5493;48.884;8.338;2022-09-27T00:07:37;98510.75;;;12.11;100.00
10881;BME280;5493;48.884;8.338;2022-09-27T00:10:04;98516.72;;;11.93;100.00
10881;BME280;5493;48.884;8.338;2022-09-27T00:12:32;98512.91;;;12.04;100.00
10881;BME280;5493;48.884;8.338;2022-09-27T00:14:59;98507.75;;;12.18;100.00
10881;BME280;5493;48.884;8.338;2022-09-27T00:17:26;98507.78;;;11.98;100.00
10881;BME280;5493;48.884;8.338;2022-09-27T00:19:54;98502.88;;;12.20;100.00
10881;BME280;5493;48.884;8.338;2022-09-27T00:22:21;98522.91;;;11.99;100.00
10881;BME280;5493;48.884;8.338;2022-09-27T00:24:49;98526.16;;;12.01;100.00
10881;BME280;5493;48.884;8.338;2022-09-27T00:27:17;98519.41;;;11.93;100.00
10881;BME280;5493;48.884;8.338;2022-09-27T00:29:44;98512.13;;;11.89;100.00
10881;BME280;5493;48.884;8.338;2022-09-27T00:32:12;98526.97;;;11.76;100.00
10881;BME280;5493;48.884;8.338;2022-09-27T00:34:40;98508.06;;;11.86;100.00
10881;BME280;5493;48.884;8.338;2022-09-27T00:37:07;98510.22;;;11.94;100.00
10881;BME280;5493;48.884;8.338;2022-09-27T00:39:34;98495.91;;;11.89;100.00
10881;BME280;5493;48.884;8.338;2022-09-27T00:42:03;98498.34;;;11.95;100.00
10881;BME280;5493;48.884;8.338;2022-09-27T00:45:01;98501.31;;;12.04;100.00
10881;BME280;5493;48.884;8.338;2022-09-27T00:47:35;98499.66;;;12.13;100.00
10881;BME280;5493;48.884;8.338;2022-09-27T00:50:08;98494.81;;;12.10;100.00
10881;BME280;5493;48.884;8.338;2022-09-27T00:52:43;98500.47;;;12.18;100.00
10881;BME280;5493;48.884;8.338;2022-09-27T00:55:14;98493.94;;;12.34;100.00
10881;BME280;5493;48.884;8.338;2022-09-27T00:57:43;98495.56;;;12.36;100.00
10881;BME280;5493;48.884;8.338;2022-09-27T01:00:12;98500.94;;;12.46;100.00
10881;BME280;5493;48.884;8.338;2022-09-27T01:02:42;98503.09;;;12.44;100.00
10881;BME280;5493;48.884;8.338;2022-09-27T01:05:11;98517.69;;;12.38;100.00
10881;BME280;5493;48.884;8.338;2022-09-27T01:07:39;98512.59;;;12.31;100.00
10881;BME280;5493;48.884;8.338;2022-09-27T01:10:06;98518.81;;;12.26;100.00
10881;BME280;5493;48.884;8.338;2022-09-27T01:12:41;98511.50;;;12.32;100.00
10881;BME280;5493;48.884;8.338;2022-09-27T01:15:20;98523.44;;;12.11;100.00
10881;BME280;5493;48.884;8.338;2022-09-27T01:17:58;98513.44;;;12.11;100.00
10881;BME280;5493;48.884;8.338;2022-09-27T01:20:52;98541.00;;;11.88;100.00
10881;BME280;5493;48.884;8.338;2022-09-27T01:23:49;98557.22;;;11.78;100.00
10881;BME280;5493;48.884;8.338;2022-09-27T01:26:35;98560.97;;;12.12;100.00
10881;BME280;5493;48.884;8.338;2022-09-27T01:29:10;98577.47;;;12.01;100.00
10881;BME280;5493;48.884;8.338;2022-09-27T01:31:47;98546.63;;;11.66;100.00
10881;BME280;5493;48.884;8.338;2022-09-27T01:34:21;98580.41;;;11.74;100.00
10881;BME280;5493;48.884;8.338;2022-09-27T01:36:53;98579.56;;;11.63;100.00
10881;BME280;5493;48.884;8.338;2022-09-27T01:39:32;98581.50;;;11.83;100.00
10881;BME280;5493;48.884;8.338;2022-09-27T01:42:08;98580.66;;;11.67;100.00
10881;BME280;5493;48.884;8.338;2022-09-27T01:44:38;98591.75;;;11.76;100.00
10881;BME280;5493;48.884;8.338;2022-09-27T01:47:13;98579.56;;;11.68;100.00
10881;BME280;5493;48.884;8.338;2022-09-27T01:49:45;98577.72;;;11.74;100.00
10881;BME280;5493;48.884;8.338;2022-09-27T01:52:17;98593.31;;;11.62;100.00
10881;BME280;5493;48.884;8.338;2022-09-27T01:54:47;98591.97;;;11.54;100.00
10881;BME280;5493;48.884;8.338;2022-09-27T01:57:21;98599.56;;;11.72;100.00
10881;BME280;5493;48.884;8.338;2022-09-27T01:59:52;98597.34;;;11.54;100.00
10881;BME280;5493;48.884;8.338;2022-09-27T02:02:23;98597.66;;;11.68;100.00
10881;BME280;5493;48.884;8.338;2022-09-27T02:04:55;98601.41;;;11.52;100.00
10881;BME280;5493;48.884;8.338;2022-09-27T02:07:26;98601.44;;;11.57;100.00
10881;BME280;5493;48.884;8.338;2022-09-27T02:09:57;98601.97;;;11.54;100.00
10881;BME280;5493;48.884;8.338;2022-09-27T02:12:28;98603.31;;;11.56;100.00
10881;BME280;5493;48.884;8.338;2022-09-27T02:14:59;98599.53;;;11.57;100.00
10881;BME280;5493;48.884;8.338;2022-09-27T02:17:35;98600.56;;;11.41;100.00
10881;BME280;5493;48.884;8.338;2022-09-27T02:20:10;98608.69;;;11.46;100.00
10881;BME280;5493;48.884;8.338;2022-09-27T02:22:44;98603.31;;;11.61;100.00
10881;BME280;5493;48.884;8.338;2022-09-27T02:25:16;98599.00;;;11.50;100.00
10881;BME280;5493;48.884;8.338;2022-09-27T02:27:51;98600.03;;;11.44;100.00
10881;BME280;5493;48.884;8.338;2022-09-27T02:30:19;98609.78;;;11.50;100.00
10881;BME280;5493;48.884;8.338;2022-09-27T02:32:47;98609.25;;;11.58;100.00
10881;BME280;5493;48.884;8.338;2022-09-27T02:35:17;98604.13;;;11.67;100.00
10881;BME280;5493;48.884;8.338;2022-09-27T02:37:44;98607.38;;;11.64;100.00
10881;BME280;5493;48.884;8.338;2022-09-27T02:40:11;98610.06;;;11.64;100.00
10881;BME280;5493;48.884;8.338;2022-09-27T02:42:39;98620.38;;;11.77;100.00
10881;BME280;5493;48.884;8.338;2022-09-27T02:45:07;98617.63;;;11.62;100.00
10881;BME280;5493;48.884;8.338;2022-09-27T02:50:52;98616.78;;;11.61;100.00
10881;BME280;5493;48.884;8.338;2022-09-27T02:53:35;98611.19;;;11.83;100.00
10881;BME280;5493;48.884;8.338;2022-09-27T02:56:08;98620.06;;;11.68;100.00
10881;BME280;5493;48.884;8.338;2022-09-27T02:58:48;98626.31;;;11.74;100.00
10881;BME280;5493;48.884;8.338;2022-09-27T03:01:25;98626.88;;;11.96;100.00
10881;BME280;5493;48.884;8.338;2022-09-27T03:03:58;98613.31;;;11.66;100.00
10881;BME280;5493;48.884;8.338;2022-09-27T03:06:28;98621.66;;;11.59;100.00
10881;BME280;5493;48.884;8.338;2022-09-27T03:08:55;98621.97;;;11.68;100.00
10881;BME280;5493;48.884;8.338;2022-09-27T03:11:22;98627.69;;;11.81;100.00
10881;BME280;5493;48.884;8.338;2022-09-27T03:13:49;98634.09;;;11.70;100.00
10881;BME280;5493;48.884;8.338;2022-09-27T03:16:15;98637.66;;;11.71;100.00
10881;BME280;5493;48.884;8.338;2022-09-27T03:18:41;98635.25;;;11.84;100.00
10881;BME280;5493;48.884;8.338;2022-09-27T03:21:08;98634.72;;;11.82;100.00
10881;BME280;5493;48.884;8.338;2022-09-27T03:23:36;98636.59;;;11.87;100.00
10881;BME280;5493;48.884;8.338;2022-09-27T03:26:03;98636.31;;;11.73;100.00
10881;BME280;5493;48.884;8.338;2022-09-27T03:28:29;98633.34;;;11.75;100.00
10881;BME280;5493;48.884;8.338;2022-09-27T03:30:56;98629.50;;;11.56;100.00
10881;BME280;5493;48.884;8.338;2022-09-27T03:33:22;98631.19;;;11.77;100.00
10881;BME280;5493;48.884;8.338;2022-09-27T03:35:49;98631.94;;;11.62;100.00
10881;BME280;5493;48.884;8.338;2022-09-27T03:38:15;98628.72;;;11.70;100.00
10881;BME280;5493;48.884;8.338;2022-09-27T03:40:43;98639.50;;;11.70;100.00
10881;BME280;5493;48.884;8.338;2022-09-27T03:43:10;98631.19;;;11.77;100.00
10881;BME280;5493;48.884;8.338;2022-09-27T03:45:36;98637.13;;;11.79;100.00
10881;BME280;5493;48.884;8.338;2022-09-27T03:48:03;98636.88;;;11.86;100.00
10881;BME280;5493;48.884;8.338;2022-09-27T03:50:29;98637.91;;;11.79;100.00
10881;BME280;5493;48.884;8.338;2022-09-27T03:52:56;98647.94;;;11.84;100.00
10881;BME280;5493;48.884;8.338;2022-09-27T03:55:22;98644.91;;;11.70;100.00
10881;BME280;5493;48.884;8.338;2022-09-27T03:57:50;98651.09;;;11.66;100.00
10881;BME280;5493;48.884;8.338;2022-09-27T04:00:17;98649.28;;;11.71;100.00
10881;BME280;5493;48.884;8.338;2022-09-27T04:02:43;98647.84;;;11.54;100.00
10881;BME280;5493;48.884;8.338;2022-09-27T04:05:10;98644.88;;;11.50;100.00
10881;BME280;5493;48.884;8.338;2022-09-27T04:07:37;98658.38;;;11.60;100.00
10881;BME280;5493;48.884;8.338;2022-09-27T04:10:04;98657.28;;;11.56;100.00
10881;BME280;5493;48.884;8.338;2022-09-27T04:12:31;98663.59;;;11.72;100.00
10881;BME280;5493;48.884;8.338;2022-09-27T04:14:59;98658.19;;;11.72;100.00
10881;BME280;5493;48.884;8.338;2022-09-27T04:17:26;98655.41;;;11.62;100.00
10881;BME280;5493;48.884;8.338;2022-09-27T04:19:52;98656.22;;;11.57;100.00
10881;BME280;5493;48.884;8.338;2022-09-27T04:22:19;98655.75;;;11.75;100.00
10881;BME280;5493;48.884;8.338;2022-09-27T04:24:45;98651.38;;;11.64;100.00
10881;BME280;5493;48.884;8.338;2022-09-27T04:27:12;98660.06;;;11.87;100.00
10881;BME280;5493;48.884;8.338;2022-09-27T04:29:38;98643.25;;;11.49;100.00
10881;BME280;5493;48.884;8.338;2022-09-27T04:32:08;98661.09;;;11.60;100.00
10881;BME280;5493;48.884;8.338;2022-09-27T04:34:35;98664.06;;;11.69;100.00
10881;BME280;5493;48.884;8.338;2022-09-27T04:37:19;98669.47;;;11.64;100.00
10881;BME280;5493;48.884;8.338;2022-09-27T04:39:45;98664.59;;;11.61;100.00
10881;BME280;5493;48.884;8.338;2022-09-27T04:42:13;98681.13;;;11.74;100.00
10881;BME280;5493;48.884;8.338;2022-09-27T04:44:40;98683.50;;;11.61;100.00
10881;BME280;5493;48.884;8.338;2022-09-27T04:47:06;98688.06;;;11.60;100.00
10881;BME280;5493;48.884;8.338;2022-09-27T04:49:34;98684.06;;;11.73;100.00
10881;BME280;5493;48.884;8.338;2022-09-27T04:52:01;98691.06;;;11.64;100.00
10881;BME280;5493;48.884;8.338;2022-09-27T04:54:27;98700.19;;;11.53;100.00
10881;BME280;5493;48.884;8.338;2022-09-27T04:56:54;98702.13;;;11.67;100.00
10881;BME280;5493;48.884;8.338;2022-09-27T04:59:21;98697.56;;;11.68;100.00
10881;BME280;5493;48.884;8.338;2022-09-27T05:01:47;98704.56;;;11.64;100.00
10881;BME280;5493;48.884;8.338;2022-09-27T05:04:14;98708.56;;;11.56;100.00
10881;BME280;5493;48.884;8.338;2022-09-27T05:06:42;98708.81;;;11.50;100.00
10881;BME280;5493;48.884;8.338;2022-09-27T05:09:09;98722.31;;;11.55;100.00
10881;BME280;5493;48.884;8.338;2022-09-27T05:11:35;98744.47;;;11.57;100.00
10881;BME280;5493;48.884;8.338;2022-09-27T05:14:02;98731.22;;;11.50;100.00
10881;BME280;5493;48.884;8.338;2022-09-27T05:16:29;98742.81;;;11.51;100.00
10881;BME280;5493;48.884;8.338;2022-09-27T05:18:55;98746.00;;;11.38;100.00
10881;BME280;5493;48.884;8.338;2022-09-27T05:21:22;98746.50;;;11.29;100.00
10881;BME280;5493;48.884;8.338;2022-09-27T05:23:50;98749.28;;;11.45;100.00
10881;BME280;5493;48.884;8.338;2022-09-27T05:26:16;98748.75;;;11.48;100.00
10881;BME280;5493;48.884;8.338;2022-09-27T05:28:43;98749.31;;;11.50;100.00
10881;BME280;5493;48.884;8.338;2022-09-27T05:31:11;98763.03;;;11.48;100.00
10881;BME280;5493;48.884;8.338;2022-09-27T05:33:38;98760.91;;;11.55;100.00
10881;BME280;5493;48.884;8.338;2022-09-27T05:36:05;98762.47;;;11.41;100.00
10881;BME280;5493;48.884;8.338;2022-09-27T05:38:32;98767.09;;;11.51;100.00
10881;BME280;5493;48.884;8.338;2022-09-27T05:41:00;98767.59;;;11.38;100.00
10881;BME280;5493;48.884;8.338;2022-09-27T05:43:28;98768.72;;;11.52;100.00
10881;BME280;5493;48.884;8.338;2022-09-27T05:45:56;98765.75;;;11.48;100.00
10881;BME280;5493;48.884;8.338;2022-09-27T05:48:23;98763.78;;;11.33;100.00
10881;BME280;5493;48.884;8.338;2022-09-27T05:50:49;98786.91;;;11.19;100.00
10881;BME280;5493;48.884;8.338;2022-09-27T05:53:16;98786.38;;;11.22;100.00
10881;BME280;5493;48.884;8.338;2022-09-27T05:55:42;98794.47;;;11.22;100.00
10881;BME280;5493;48.884;8.338;2022-09-27T05:58:10;98790.41;;;11.20;100.00
10881;BME280;5493;48.884;8.338;2022-09-27T06:00:40;98802.31;;;11.24;100.00
10881;BME280;5493;48.884;8.338;2022-09-27T06:03:08;98796.38;;;11.27;100.00
10881;BME280;5493;48.884;8.338;2022-09-27T06:05:37;98795.66;;;11.00;100.00
10881;BME280;5493;48.884;8.338;2022-09-27T06:08:06;98799.22;;;11.05;100.00
10881;BME280;5493;48.884;8.338;2022-09-27T06:10:33;98811.19;;;11.19;100.00
10881;BME280;5493;48.884;8.338;2022-09-27T06:13:01;98808.13;;;11.06;100.00
10881;BME280;5493;48.884;8.338;2022-09-27T06:15:30;98817.78;;;11.02;100.00
10881;BME280;5493;48.884;8.338;2022-09-27T06:18:02;98819.75;;;11.11;100.00
10881;BME280;5493;48.884;8.338;2022-09-27T06:20:29;98813.47;;;11.01;100.00
10881;BME280;5493;48.884;8.338;2022-09-27T06:23:02;98811.94;;;11.15;100.00
10881;BME280;5493;48.884;8.338;2022-09-27T06:25:29;98818.44;;;10.82;100.00
10881;BME280;5493;48.884;8.338;2022-09-27T06:27:55;98825.84;;;10.97;100.00
10881;BME280;5493;48.884;8.338;2022-09-27T06:30:22;98811.44;;;10.86;100.00
10881;BME280;5493;48.884;8.338;2022-09-27T06:32:54;98831.19;;;10.92;100.00
10881;BME280;5493;48.884;8.338;2022-09-27T06:35:21;98846.03;;;10.94;100.00
10881;BME280;5493;48.884;8.338;2022-09-27T06:37:49;98848.56;;;11.06;100.00
10881;BME280;5493;48.884;8.338;2022-09-27T06:40:15;98839.91;;;11.04;100.00
10881;BME280;5493;48.884;8.338;2022-09-27T06:42:42;98841.19;;;10.96;100.00
10881;BME280;5493;48.884;8.338;2022-09-27T06:45:09;98848.16;;;11.24;100.00
10881;BME280;5493;48.884;8.338;2022-09-27T06:47:36;98855.19;;;10.93;100.00
10881;BME280;5493;48.884;8.338;2022-09-27T06:50:05;98845.09;;;11.10;100.00
10881;BME280;5493;48.884;8.338;2022-09-27T06:52:32;98856.78;;;11.21;100.00
10881;BME280;5493;48.884;8.338;2022-09-27T06:54:59;98862.97;;;11.21;100.00
10881;BME280;5493;48.884;8.338;2022-09-27T06:57:25;98860.25;;;11.16;100.00
10881;BME280;5493;48.884;8.338;2022-09-27T07:00:11;98855.63;;;11.12;100.00
10881;BME280;5493;48.884;8.338;2022-09-27T07:02:51;98861.16;;;10.95;100.00
10881;BME280;5493;48.884;8.338;2022-09-27T07:05:19;98868.72;;;11.30;100.00
10881;BME280;5493;48.884;8.338;2022-09-27T07:07:46;98869.66;;;11.51;100.00
10881;BME280;5493;48.884;8.338;2022-09-27T07:10:13;98869.38;;;11.47;100.00
10881;BME280;5493;48.884;8.338;2022-09-27T07:12:41;98873.06;;;11.36;100.00
10881;BME280;5493;48.884;8.338;2022-09-27T07:15:11;98872.03;;;11.42;100.00
10881;BME280;5493;48.884;8.338;2022-09-27T07:17:38;98883.06;;;11.35;100.00
10881;BME280;5493;48.884;8.338;2022-09-27T07:20:05;98885.53;;;11.42;100.00
10881;BME280;5493;48.884;8.338;2022-09-27T07:22:38;98880.38;;;11.35;100.00
10881;BME280;5493;48.884;8.338;2022-09-27T07:25:05;98887.88;;;11.28;100.00
10881;BME280;5493;48.884;8.338;2022-09-27T07:27:32;98887.13;;;11.38;100.00
10881;BME280;5493;48.884;8.338;2022-09-27T07:29:59;98879.72;;;11.65;100.00
10881;BME280;5493;48.884;8.338;2022-09-27T07:32:25;98891.00;;;11.89;100.00
10881;BME280;5493;48.884;8.338;2022-09-27T07:34:52;98887.47;;;11.89;100.00
10881;BME280;5493;48.884;8.338;2022-09-27T07:37:19;98883.53;;;11.69;100.00
10881;BME280;5493;48.884;8.338;2022-09-27T07:39:46;98888.75;;;11.76;100.00
10881;BME280;5493;48.884;8.338;2022-09-27T07:42:13;98884.97;;;11.72;100.00
10881;BME280;5493;48.884;8.338;2022-09-27T07:44:39;98893.66;;;11.47;100.00
10881;BME280;5493;48.884;8.338;2022-09-27T07:47:06;98890.09;;;11.73;100.00
10881;BME280;5493;48.884;8.338;2022-09-27T07:49:33;98895.63;;;11.62;100.00
10881;BME280;5493;48.884;8.338;2022-09-27T07:52:00;98891.44;;;11.71;100.00
10881;BME280;5493;48.884;8.338;2022-09-27T07:54:26;98896.59;;;11.77;100.00
10881;BME280;5493;48.884;8.338;2022-09-27T07:56:54;98901.28;;;11.55;100.00
10881;BME280;5493;48.884;8.338;2022-09-27T07:59:21;98909.66;;;11.59;100.00
10881;BME280;5493;48.884;8.338;2022-09-27T08:01:48;98902.00;;;11.77;100.00
10881;BME280;5493;48.884;8.338;2022-09-27T08:04:14;98907.19;;;11.52;100.00
10881;BME280;5493;48.884;8.338;2022-09-27T08:06:41;98903.09;;;11.81;100.00
10881;BME280;5493;48.884;8.338;2022-09-27T08:09:07;98903.13;;;11.50;100.00
10881;BME280;5493;48.884;8.338;2022-09-27T08:11:34;98915.81;;;11.54;100.00
10881;BME280;5493;48.884;8.338;2022-09-27T08:14:03;98908.78;;;11.48;100.00
10881;BME280;5493;48.884;8.338;2022-09-27T08:16:31;98916.81;;;11.43;100.00
10881;BME280;5493;48.884;8.338;2022-09-27T08:18:58;98913.13;;;11.49;100.00
10881;BME280;5493;48.884;8.338;2022-09-27T08:21:25;98912.88;;;11.56;100.00
10881;BME280;5493;48.884;8.338;2022-09-27T08:23:51;98920.38;;;11.80;100.00
10881;BME280;5493;48.884;8.338;2022-09-27T08:26:18;98919.59;;;11.85;100.00
10881;BME280;5493;48.884;8.338;2022-09-27T08:28:46;98915.09;;;11.64;100.00
10881;BME280;5493;48.884;8.338;2022-09-27T08:31:13;98914.38;;;11.73;100.00
10881;BME280;5493;48.884;8.338;2022-09-27T08:33:40;98908.75;;;11.80;100.00
10881;BME280;5493;48.884;8.338;2022-09-27T08:36:09;98915.03;;;11.91;100.00
10881;BME280;5493;48.884;8.338;2022-09-27T08:38:36;98913.50;;;12.10;100.00
10881;BME280;5493;48.884;8.338;2022-09-27T08:41:07;98910.88;;;12.30;100.00
10881;BME280;5493;48.884;8.338;2022-09-27T08:43:39;98907.06;;;12.21;100.00
10881;BME280;5493;48.884;8.338;2022-09-27T08:46:20;98899.84;;;12.37;100.00
10881;BME280;5493;48.884;8.338;2022-09-27T08:48:53;98903.69;;;12.56;100.00
10881;BME280;5493;48.884;8.338;2022-09-27T08:51:28;98898.53;;;12.44;100.00
10881;BME280;5493;48.884;8.338;2022-09-27T08:54:00;98902.84;;;12.45;100.00
10881;BME280;5493;48.884;8.338;2022-09-27T08:56:28;98907.59;;;12.18;100.00
10881;BME280;5493;48.884;8.338;2022-09-27T08:58:59;98895.78;;;12.29;100.00
10881;BME280;5493;48.884;8.338;2022-09-27T09:01:28;98909.34;;;12.49;100.00
10881;BME280;5493;48.884;8.338;2022-09-27T09:03:58;98892.78;;;12.30;100.00
10881;BME280;5493;48.884;8.338;2022-09-27T09:06:33;98890.38;;;12.34;100.00
10881;BME280;5493;48.884;8.338;2022-09-27T09:09:12;98883.56;;;12.21;100.00
10881;BME280;5493;48.884;8.338;2022-09-27T09:11:50;98888.25;;;12.46;100.00
10881;BME280;5493;48.884;8.338;2022-09-27T09:14:47;98889.63;;;12.54;100.00
10881;BME280;5493;48.884;8.338;2022-09-27T09:17:32;98874.59;;;13.13;100.00
10881;BME280;5493;48.884;8.338;2022-09-27T09:20:11;98865.13;;;13.31;100.00
10881;BME280;5493;48.884;8.338;2022-09-27T09:22:55;98864.59;;;13.29;100.00
10881;BME280;5493;48.884;8.338;2022-09-27T09:25:29;98873.81;;;13.13;100.00
10881;BME280;5493;48.884;8.338;2022-09-27T09:28:06;98864.84;;;13.17;100.00
10881;BME280;5493;48.884;8.338;2022-09-27T09:30:44;98868.38;;;13.13;100.00
10881;BME280;5493;48.884;8.338;2022-09-27T09:33:19;98868.06;;;12.79;100.00
10881;BME280;5493;48.884;8.338;2022-09-27T09:35:51;98871.28;;;12.71;100.00
10881;BME280;5493;48.884;8.338;2022-09-27T09:38:23;98875.06;;;12.75;100.00
10881;BME280;5493;48.884;8.338;2022-09-27T09:40:56;98872.38;;;12.95;100.00
10881;BME280;5493;48.884;8.338;2022-09-27T09:43:28;98862.63;;;12.79;100.00
10881;BME280;5493;48.884;8.338;2022-09-27T09:46:01;98862.91;;;12.82;100.00
10881;BME280;5493;48.884;8.338;2022-09-27T09:48:38;98859.66;;;12.70;100.00
10881;BME280;5493;48.884;8.338;2022-09-27T09:51:12;98859.97;;;12.94;100.00
10881;BME280;5493;48.884;8.338;2022-09-27T09:53:46;98864.56;;;12.94;100.00
10881;BME280;5493;48.884;8.338;2022-09-27T09:56:19;98850.19;;;12.78;100.00
10881;BME280;5493;48.884;8.338;2022-09-27T09:58:52;98863.22;;;12.91;100.00
10881;BME280;5493;48.884;8.338;2022-09-27T10:01:21;98868.06;;;12.84;100.00
10881;BME280;5493;48.884;8.338;2022-09-27T10:03:49;98869.34;;;12.51;100.00
10881;BME280;5493;48.884;8.338;2022-09-27T10:06:17;98869.28;;;12.31;100.00
10881;BME280;5493;48.884;8.338;2022-09-27T10:08:44;98851.31;;;11.90;100.00
10881;BME280;5493;48.884;8.338;2022-09-27T10:11:17;98864.09;;;12.19;100.00
10881;BME280;5493;48.884;8.338;2022-09-27T10:13:45;98865.91;;;11.99;100.00
10881;BME280;5493;48.884;8.338;2022-09-27T10:16:15;98878.34;;;12.05;100.00
10881;BME280;5493;48.884;8.338;2022-09-27T10:18:43;98883.22;;;12.03;100.00
10881;BME280;5493;48.884;8.338;2022-09-27T10:21:12;98871.03;;;11.95;100.00
10881;BME280;5493;48.884;8.338;2022-09-27T10:24:06;98862.00;;;12.31;100.00
10881;BME280;5493;48.884;8.338;2022-09-27T10:26:34;98864.47;;;12.53;100.00
10881;BME280;5493;48.884;8.338;2022-09-27T10:29:15;98884.47;;;12.37;100.00
10881;BME280;5493;48.884;8.338;2022-09-27T10:31:43;98868.25;;;12.37;100.00
10881;BME280;5493;48.884;8.338;2022-09-27T10:34:17;98881.78;;;12.47;100.00
10881;BME280;5493;48.884;8.338;2022-09-27T10:37:01;98890.53;;;12.12;100.00
10881;BME280;5493;48.884;8.338;2022-09-27T10:39:29;98897.06;;;12.11;100.00
10881;BME280;5493;48.884;8.338;2022-09-27T10:41:56;98908.50;;;11.81;100.00
10881;BME280;5493;48.884;8.338;2022-09-27T10:44:25;98912.00;;;11.82;100.00
10881;BME280;5493;48.884;8.338;2022-09-27T10:46:52;98907.59;;;11.02;100.00
10881;BME280;5493;48.884;8.338;2022-09-27T10:49:21;98915.13;;;11.00;100.00
10881;BME280;5493;48.884;8.338;2022-09-27T10:51:53;98899.22;;;10.72;100.00
10881;BME280;5493;48.884;8.338;2022-09-27T10:54:22;98886.34;;;10.52;100.00
10881;BME280;5493;48.884;8.338;2022-09-27T10:56:59;98894.34;;;10.04;100.00
10881;BME280;5493;48.884;8.338;2022-09-27T10:59:30;98894.22;;;9.94;100.00
10881;BME280;5493;48.884;8.338;2022-09-27T11:01:59;98897.78;;;9.99;100.00
10881;BME280;5493;48.884;8.338;2022-09-27T11:04:29;98902.66;;;10.02;100.00
10881;BME280;5493;48.884;8.338;2022-09-27T11:07:10;98907.69;;;9.94;100.00
10881;BME280;5493;48.884;8.338;2022-09-27T11:09:46;98914.88;;;10.10;100.00
10881;BME280;5493;48.884;8.338;2022-09-27T11:12:15;98906.00;;;10.09;100.00
10881;BME280;5493;48.884;8.338;2022-09-27T11:14:52;98898.34;;;10.18;100.00
10881;BME280;5493;48.884;8.338;2022-09-27T11:17:26;98902.66;;;9.80;100.00
10881;BME280;5493;48.884;8.338;2022-09-27T11:20:14;98911.13;;;9.89;100.00
10881;BME280;5493;48.884;8.338;2022-09-27T11:25:51;98899.03;;;10.13;100.00
10881;BME280;5493;48.884;8.338;2022-09-27T11:28:30;98905.44;;;10.07;100.00
10881;BME280;5493;48.884;8.338;2022-09-27T11:31:07;98902.75;;;10.07;100.00
10881;BME280;5493;48.884;8.338;2022-09-27T11:34:04;98905.56;;;9.96;100.00
10881;BME280;5493;48.884;8.338;2022-09-27T11:36:46;98915.81;;;9.99;100.00
10881;BME280;5493;48.884;8.338;2022-09-27T11:39:22;98897.50;;;10.17;100.00
10881;BME280;5493;48.884;8.338;2022-09-27T11:42:09;98901.75;;;10.13;100.00
10881;BME280;5493;48.884;8.338;2022-09-27T11:44:59;98891.25;;;10.33;100.00
10881;BME280;5493;48.884;8.338;2022-09-27T11:47:36;98887.63;;;10.45;100.00
10881;BME280;5493;48.884;8.338;2022-09-27T11:50:19;98891.69;;;10.47;100.00
10881;BME280;5493;48.884;8.338;2022-09-27T11:53:04;98877.44;;;10.52;100.00
10881;BME280;5493;48.884;8.338;2022-09-27T11:55:44;98872.06;;;10.52;100.00
10881;BME280;5493;48.884;8.338;2022-09-27T11:58:21;98881.13;;;10.46;100.00
10881;BME280;5493;48.884;8.338;2022-09-27T12:01:00;98880.00;;;10.63;100.00
10881;BME280;5493;48.884;8.338;2022-09-27T12:03:50;98869.53;;;10.67;100.00
10881;BME280;5493;48.884;8.338;2022-09-27T12:06:24;98879.25;;;10.46;100.00
10881;BME280;5493;48.884;8.338;2022-09-27T12:09:02;98874.75;;;10.52;100.00
10881;BME280;5493;48.884;8.338;2022-09-27T12:11:36;98873.63;;;10.48;100.00
10881;BME280;5493;48.884;8.338;2022-09-27T12:14:08;98870.50;;;10.56;100.00
10881;BME280;5493;48.884;8.338;2022-09-27T12:16:38;98869.34;;;10.78;100.00
10881;BME280;5493;48.884;8.338;2022-09-27T12:19:11;98863.81;;;10.90;100.00
10881;BME280;5493;48.884;8.338;2022-09-27T12:21:42;98857.47;;;11.06;100.00
10881;BME280;5493;48.884;8.338;2022-09-27T12:24:17;98851.59;;;11.14;100.00
10881;BME280;5493;48.884;8.338;2022-09-27T12:26:47;98842.34;;;11.05;100.00
10881;BME280;5493;48.884;8.338;2022-09-27T12:29:21;98835.50;;;11.24;100.00
10881;BME280;5493;48.884;8.338;2022-09-27T12:31:55;98834.44;;;11.30;100.00
10881;BME280;5493;48.884;8.338;2022-09-27T12:34:27;98836.03;;;11.26;100.00
10881;BME280;5493;48.884;8.338;2022-09-27T12:36:59;98829.41;;;11.39;100.00
10881;BME280;5493;48.884;8.338;2022-09-27T12:39:36;98834.97;;;11.27;100.00
10881;BME280;5493;48.884;8.338;2022-09-27T12:42:12;98832.41;;;11.48;100.00
10881;BME280;5493;48.884;8.338;2022-09-27T12:44:40;98824.34;;;11.58;100.00
10881;BME280;5493;48.884;8.338;2022-09-27T12:47:14;98828.69;;;11.59;100.00
10881;BME280;5493;48.884;8.338;2022-09-27T12:49:48;98833.88;;;11.70;100.00
10881;BME280;5493;48.884;8.338;2022-09-27T12:52:21;98838.53;;;11.75;100.00
10881;BME280;5493;48.884;8.338;2022-09-27T12:55:13;98842.22;;;11.64;100.00
10881;BME280;5493;48.884;8.338;2022-09-27T12:58:05;98833.50;;;11.52;100.00
10881;BME280;5493;48.884;8.338;2022-09-27T13:00:39;98820.91;;;11.67;100.00
10881;BME280;5493;48.884;8.338;2022-09-27T13:03:25;98808.72;;;11.65;100.00
10881;BME280;5493;48.884;8.338;2022-09-27T13:06:23;98820.38;;;11.70;100.00
10881;BME280;5493;48.884;8.338;2022-09-27T13:09:20;98824.75;;;11.76;100.00
10881;BME280;5493;48.884;8.338;2022-09-27T13:11:57;98821.44;;;11.69;100.00
10881;BME280;5493;48.884;8.338;2022-09-27T13:14:31;98814.66;;;12.14;100.00
10881;BME280;5493;48.884;8.338;2022-09-27T13:16:59;98808.94;;;12.00;100.00
10881;BME280;5493;48.884;8.338;2022-09-27T13:19:40;98808.97;;;12.10;100.00
10881;BME280;5493;48.884;8.338;2022-09-27T13:22:09;98823.06;;;12.27;100.00
10881;BME280;5493;48.884;8.338;2022-09-27T13:24:46;98818.97;;;12.15;100.00
10881;BME280;5493;48.884;8.338;2022-09-27T13:27:38;98807.09;;;12.21;100.00